sensor_id;sensor_type;location;lat;lon;timestamp;P1;durP1;ratioP1;P2;durP2;ratioP2
78336;SDS011;67610;51.588;7.002;2023-04-15T00:00:13;6.57;;;4.47;;
78336;SDS011;67610;51.588;7.002;2023-04-15T00:02:39;7.75;;;4.80;;
78336;SDS011;67610;51.588;7.002;2023-04-15T00:05:05;7.13;;;4.60;;
78336;SDS011;67610;51.588;7.002;2023-04-15T00:07:32;6.75;;;4.80;;
78336;SDS011;67610;51.588;7.002;2023-04-15T00:09:58;7.85;;;4.55;;
78336;SDS011;67610;51.588;7.002;2023-04-15T00:12:24;7.45;;;4.50;;
78336;SDS011;67610;51.588;7.002;2023-04-15T00:14:52;7.95;;;4.95;;
78336;SDS011;67610;51.588;7.002;2023-04-15T00:17:18;9.80;;;4.60;;
78336;SDS011;67610;51.588;7.002;2023-04-15T00:19:44;8.05;;;4.65;;
78336;SDS011;67610;51.588;7.002;2023-04-15T00:22:10;7.68;;;4.85;;
78336;SDS011;67610;51.588;7.002;2023-04-15T00:24:36;7.85;;;4.55;;
78336;SDS011;67610;51.588;7.002;2023-04-15T00:27:01;9.02;;;4.53;;
78336;SDS011;67610;51.588;7.002;2023-04-15T00:29:27;7.70;;;4.82;;
78336;SDS011;67610;51.588;7.002;2023-04-15T00:31:53;8.25;;;4.50;;
78336;SDS011;67610;51.588;7.002;2023-04-15T00:34:19;8.73;;;4.55;;
78336;SDS011;67610;51.588;7.002;2023-04-15T00:36:44;6.28;;;4.10;;
78336;SDS011;67610;51.588;7.002;2023-04-15T00:39:10;7.75;;;4.60;;
78336;SDS011;67610;51.588;7.002;2023-04-15T00:41:35;7.30;;;4.32;;
78336;SDS011;67610;51.588;7.002;2023-04-15T00:44:03;8.68;;;4.70;;
78336;SDS011;67610;51.588;7.002;2023-04-15T00:46:30;8.40;;;4.60;;
78336;SDS011;67610;51.588;7.002;2023-04-15T00:48:59;7.63;;;4.43;;
78336;SDS011;67610;51.588;7.002;2023-04-15T00:51:25;6.85;;;4.53;;
78336;SDS011;67610;51.588;7.002;2023-04-15T00:53:51;6.78;;;4.38;;
78336;SDS011;67610;51.588;7.002;2023-04-15T00:56:16;7.93;;;4.70;;
78336;SDS011;67610;51.588;7.002;2023-04-15T00:58:44;7.18;;;4.57;;
78336;SDS011;67610;51.588;7.002;2023-04-15T01:01:09;6.95;;;4.20;;
78336;SDS011;67610;51.588;7.002;2023-04-15T01:03:35;7.45;;;4.20;;
78336;SDS011;67610;51.588;7.002;2023-04-15T01:06:00;8.00;;;4.55;;
78336;SDS011;67610;51.588;7.002;2023-04-15T01:08:27;7.53;;;4.43;;
78336;SDS011;67610;51.588;7.002;2023-04-15T01:10:53;8.32;;;4.72;;
78336;SDS011;67610;51.588;7.002;2023-04-15T01:13:21;8.38;;;4.75;;
78336;SDS011;67610;51.588;7.002;2023-04-15T01:15:49;7.55;;;4.65;;
78336;SDS011;67610;51.588;7.002;2023-04-15T01:18:16;6.93;;;4.38;;
78336;SDS011;67610;51.588;7.002;2023-04-15T01:20:42;6.60;;;4.13;;
78336;SDS011;67610;51.588;7.002;2023-04-15T01:23:08;8.27;;;4.72;;
78336;SDS011;67610;51.588;7.002;2023-04-15T01:25:33;7.60;;;4.60;;
78336;SDS011;67610;51.588;7.002;2023-04-15T01:27:59;7.30;;;4.22;;
78336;SDS011;67610;51.588;7.002;2023-04-15T01:30:25;7.30;;;4.30;;
78336;SDS011;67610;51.588;7.002;2023-04-15T01:32:51;6.10;;;4.00;;
78336;SDS011;67610;51.588;7.002;2023-04-15T01:35:17;7.95;;;4.50;;
78336;SDS011;67610;51.588;7.002;2023-04-15T01:37:43;6.45;;;4.40;;
78336;SDS011;67610;51.588;7.002;2023-04-15T01:40:09;8.70;;;4.53;;
78336;SDS011;67610;51.588;7.002;2023-04-15T01:42:35;7.80;;;4.18;;
78336;SDS011;67610;51.588;7.002;2023-04-15T01:45:01;6.65;;;4.35;;
78336;SDS011;67610;51.588;7.002;2023-04-15T01:47:28;5.53;;;3.90;;
78336;SDS011;67610;51.588;7.002;2023-04-15T01:49:53;7.85;;;4.10;;
78336;SDS011;67610;51.588;7.002;2023-04-15T01:52:18;6.35;;;3.95;;
78336;SDS011;67610;51.588;7.002;2023-04-15T01:54:44;7.95;;;4.40;;
78336;SDS011;67610;51.588;7.002;2023-04-15T01:57:09;6.15;;;3.92;;
78336;SDS011;67610;51.588;7.002;2023-04-15T01:59:35;6.95;;;4.20;;
78336;SDS011;67610;51.588;7.002;2023-04-15T02:02:01;9.43;;;4.28;;
78336;SDS011;67610;51.588;7.002;2023-04-15T02:04:26;7.50;;;4.45;;
78336;SDS011;67610;51.588;7.002;2023-04-15T02:06:52;6.65;;;4.65;;
78336;SDS011;67610;51.588;7.002;2023-04-15T02:09:17;7.28;;;4.30;;
78336;SDS011;67610;51.588;7.002;2023-04-15T02:11:43;9.25;;;4.55;;
78336;SDS011;67610;51.588;7.002;2023-04-15T02:14:10;7.72;;;4.30;;
78336;SDS011;67610;51.588;7.002;2023-04-15T02:16:35;6.45;;;4.35;;
78336;SDS011;67610;51.588;7.002;2023-04-15T02:19:00;6.95;;;4.18;;
78336;SDS011;67610;51.588;7.002;2023-04-15T02:21:26;8.40;;;4.90;;
78336;SDS011;67610;51.588;7.002;2023-04-15T02:23:51;8.05;;;5.00;;
78336;SDS011;67610;51.588;7.002;2023-04-15T02:26:19;8.30;;;4.50;;
78336;SDS011;67610;51.588;7.002;2023-04-15T02:28:45;8.10;;;4.50;;
78336;SDS011;67610;51.588;7.002;2023-04-15T02:31:11;7.85;;;4.85;;
78336;SDS011;67610;51.588;7.002;2023-04-15T02:33:36;7.75;;;4.95;;
78336;SDS011;67610;51.588;7.002;2023-04-15T02:36:02;7.30;;;4.40;;
78336;SDS011;67610;51.588;7.002;2023-04-15T02:38:27;7.85;;;4.85;;
78336;SDS011;67610;51.588;7.002;2023-04-15T02:40:53;7.47;;;5.40;;
78336;SDS011;67610;51.588;7.002;2023-04-15T02:43:18;7.03;;;4.60;;
78336;SDS011;67610;51.588;7.002;2023-04-15T02:45:44;6.47;;;4.60;;
78336;SDS011;67610;51.588;7.002;2023-04-15T02:48:11;8.52;;;5.03;;
78336;SDS011;67610;51.588;7.002;2023-04-15T02:50:37;7.68;;;5.07;;
78336;SDS011;67610;51.588;7.002;2023-04-15T02:53:05;7.82;;;5.30;;
78336;SDS011;67610;51.588;7.002;2023-04-15T02:55:31;6.70;;;4.40;;
78336;SDS011;67610;51.588;7.002;2023-04-15T02:57:56;8.93;;;5.00;;
78336;SDS011;67610;51.588;7.002;2023-04-15T03:00:25;8.07;;;4.80;;
78336;SDS011;67610;51.588;7.002;2023-04-15T03:02:56;8.32;;;5.32;;
78336;SDS011;67610;51.588;7.002;2023-04-15T03:05:22;9.35;;;5.28;;
78336;SDS011;67610;51.588;7.002;2023-04-15T03:07:51;8.65;;;5.20;;
78336;SDS011;67610;51.588;7.002;2023-04-15T03:10:16;10.00;;;5.70;;
78336;SDS011;67610;51.588;7.002;2023-04-15T03:12:42;8.60;;;5.63;;
78336;SDS011;67610;51.588;7.002;2023-04-15T03:15:07;10.90;;;5.00;;
78336;SDS011;67610;51.588;7.002;2023-04-15T03:17:33;7.35;;;5.15;;
78336;SDS011;67610;51.588;7.002;2023-04-15T03:20:00;8.75;;;5.18;;
78336;SDS011;67610;51.588;7.002;2023-04-15T03:22:26;9.35;;;5.38;;
78336;SDS011;67610;51.588;7.002;2023-04-15T03:24:52;8.25;;;5.75;;
78336;SDS011;67610;51.588;7.002;2023-04-15T03:27:17;8.30;;;5.45;;
78336;SDS011;67610;51.588;7.002;2023-04-15T03:29:42;9.80;;;5.60;;
78336;SDS011;67610;51.588;7.002;2023-04-15T03:32:08;10.20;;;5.40;;
78336;SDS011;67610;51.588;7.002;2023-04-15T03:34:33;11.50;;;6.15;;
78336;SDS011;67610;51.588;7.002;2023-04-15T03:36:58;8.88;;;5.78;;
78336;SDS011;67610;51.588;7.002;2023-04-15T03:39:24;9.95;;;6.25;;
78336;SDS011;67610;51.588;7.002;2023-04-15T03:41:49;7.53;;;5.57;;
78336;SDS011;67610;51.588;7.002;2023-04-15T03:44:15;9.55;;;5.53;;
78336;SDS011;67610;51.588;7.002;2023-04-15T03:46:40;7.80;;;5.50;;
78336;SDS011;67610;51.588;7.002;2023-04-15T03:49:06;9.07;;;6.22;;
78336;SDS011;67610;51.588;7.002;2023-04-15T03:51:32;10.63;;;5.88;;
78336;SDS011;67610;51.588;7.002;2023-04-15T03:53:58;10.02;;;5.65;;
78336;SDS011;67610;51.588;7.002;2023-04-15T03:56:23;11.57;;;5.95;;
78336;SDS011;67610;51.588;7.002;2023-04-15T03:58:49;10.52;;;6.18;;
78336;SDS011;67610;51.588;7.002;2023-04-15T04:01:15;8.73;;;5.85;;
78336;SDS011;67610;51.588;7.002;2023-04-15T04:03:40;9.77;;;5.80;;
78336;SDS011;67610;51.588;7.002;2023-04-15T04:06:06;10.38;;;6.03;;
78336;SDS011;67610;51.588;7.002;2023-04-15T04:08:32;10.27;;;5.90;;
78336;SDS011;67610;51.588;7.002;2023-04-15T04:10:57;10.95;;;5.40;;
78336;SDS011;67610;51.588;7.002;2023-04-15T04:13:22;9.55;;;6.35;;
78336;SDS011;67610;51.588;7.002;2023-04-15T04:15:48;8.57;;;5.80;;
78336;SDS011;67610;51.588;7.002;2023-04-15T04:18:13;10.85;;;6.10;;
78336;SDS011;67610;51.588;7.002;2023-04-15T04:20:39;10.38;;;6.13;;
78336;SDS011;67610;51.588;7.002;2023-04-15T04:23:04;8.82;;;6.10;;
78336;SDS011;67610;51.588;7.002;2023-04-15T04:25:30;11.25;;;5.72;;
78336;SDS011;67610;51.588;7.002;2023-04-15T04:27:55;12.25;;;6.72;;
78336;SDS011;67610;51.588;7.002;2023-04-15T04:30:20;9.70;;;5.75;;
78336;SDS011;67610;51.588;7.002;2023-04-15T04:32:46;10.55;;;6.18;;
78336;SDS011;67610;51.588;7.002;2023-04-15T04:35:11;10.32;;;5.90;;
78336;SDS011;67610;51.588;7.002;2023-04-15T04:37:38;9.52;;;5.95;;
78336;SDS011;67610;51.588;7.002;2023-04-15T04:40:03;9.95;;;6.15;;
78336;SDS011;67610;51.588;7.002;2023-04-15T04:42:29;9.82;;;6.50;;
78336;SDS011;67610;51.588;7.002;2023-04-15T04:44:55;11.50;;;7.07;;
78336;SDS011;67610;51.588;7.002;2023-04-15T04:47:20;11.98;;;7.07;;
78336;SDS011;67610;51.588;7.002;2023-04-15T04:49:46;10.55;;;6.55;;
78336;SDS011;67610;51.588;7.002;2023-04-15T04:52:11;12.60;;;7.85;;
78336;SDS011;67610;51.588;7.002;2023-04-15T04:54:37;13.90;;;8.10;;
78336;SDS011;67610;51.588;7.002;2023-04-15T04:57:02;14.45;;;7.97;;
78336;SDS011;67610;51.588;7.002;2023-04-15T04:59:27;14.60;;;8.23;;
78336;SDS011;67610;51.588;7.002;2023-04-15T05:01:53;15.13;;;8.45;;
78336;SDS011;67610;51.588;7.002;2023-04-15T05:04:18;15.93;;;8.43;;
78336;SDS011;67610;51.588;7.002;2023-04-15T05:06:44;15.65;;;8.85;;
78336;SDS011;67610;51.588;7.002;2023-04-15T05:09:09;15.23;;;8.77;;
78336;SDS011;67610;51.588;7.002;2023-04-15T05:11:35;17.40;;;8.75;;
78336;SDS011;67610;51.588;7.002;2023-04-15T05:14:00;13.70;;;8.75;;
78336;SDS011;67610;51.588;7.002;2023-04-15T05:16:26;14.55;;;8.75;;
78336;SDS011;67610;51.588;7.002;2023-04-15T05:18:51;13.52;;;8.35;;
78336;SDS011;67610;51.588;7.002;2023-04-15T05:21:17;16.52;;;9.27;;
78336;SDS011;67610;51.588;7.002;2023-04-15T05:23:43;13.32;;;8.25;;
78336;SDS011;67610;51.588;7.002;2023-04-15T05:26:08;16.17;;;8.65;;
78336;SDS011;67610;51.588;7.002;2023-04-15T05:28:33;13.40;;;8.52;;
78336;SDS011;67610;51.588;7.002;2023-04-15T05:30:59;14.10;;;8.40;;
78336;SDS011;67610;51.588;7.002;2023-04-15T05:33:24;15.00;;;8.68;;
78336;SDS011;67610;51.588;7.002;2023-04-15T05:35:50;14.85;;;8.63;;
78336;SDS011;67610;51.588;7.002;2023-04-15T05:38:15;13.90;;;8.38;;
78336;SDS011;67610;51.588;7.002;2023-04-15T05:40:41;13.32;;;8.45;;
78336;SDS011;67610;51.588;7.002;2023-04-15T05:43:06;11.68;;;8.18;;
78336;SDS011;67610;51.588;7.002;2023-04-15T05:45:31;13.80;;;8.40;;
78336;SDS011;67610;51.588;7.002;2023-04-15T05:47:57;15.23;;;8.13;;
78336;SDS011;67610;51.588;7.002;2023-04-15T05:50:22;12.40;;;7.72;;
78336;SDS011;67610;51.588;7.002;2023-04-15T05:52:48;15.07;;;8.23;;
78336;SDS011;67610;51.588;7.002;2023-04-15T05:55:13;12.75;;;7.88;;
78336;SDS011;67610;51.588;7.002;2023-04-15T05:57:38;13.25;;;7.65;;
78336;SDS011;67610;51.588;7.002;2023-04-15T06:00:05;12.65;;;7.75;;
78336;SDS011;67610;51.588;7.002;2023-04-15T06:02:31;11.30;;;7.63;;
78336;SDS011;67610;51.588;7.002;2023-04-15T06:04:56;11.43;;;7.78;;
78336;SDS011;67610;51.588;7.002;2023-04-15T06:07:22;12.90;;;8.13;;
78336;SDS011;67610;51.588;7.002;2023-04-15T06:09:48;12.57;;;7.22;;
78336;SDS011;67610;51.588;7.002;2023-04-15T06:12:13;14.57;;;8.35;;
78336;SDS011;67610;51.588;7.002;2023-04-15T06:14:39;11.40;;;7.63;;
78336;SDS011;67610;51.588;7.002;2023-04-15T06:17:05;14.07;;;7.38;;
78336;SDS011;67610;51.588;7.002;2023-04-15T06:19:31;12.95;;;7.80;;
78336;SDS011;67610;51.588;7.002;2023-04-15T06:21:57;12.68;;;7.20;;
78336;SDS011;67610;51.588;7.002;2023-04-15T06:24:22;12.95;;;7.85;;
78336;SDS011;67610;51.588;7.002;2023-04-15T06:26:49;11.57;;;6.57;;
78336;SDS011;67610;51.588;7.002;2023-04-15T06:29:15;12.90;;;7.07;;
78336;SDS011;67610;51.588;7.002;2023-04-15T06:31:40;9.32;;;6.28;;
78336;SDS011;67610;51.588;7.002;2023-04-15T06:34:06;11.18;;;6.85;;
78336;SDS011;67610;51.588;7.002;2023-04-15T06:36:31;10.52;;;6.53;;
78336;SDS011;67610;51.588;7.002;2023-04-15T06:38:57;11.18;;;7.20;;
78336;SDS011;67610;51.588;7.002;2023-04-15T06:41:22;12.43;;;6.60;;
78336;SDS011;67610;51.588;7.002;2023-04-15T06:43:47;9.95;;;6.63;;
78336;SDS011;67610;51.588;7.002;2023-04-15T06:46:13;11.35;;;6.75;;
78336;SDS011;67610;51.588;7.002;2023-04-15T06:48:38;10.93;;;6.57;;
78336;SDS011;67610;51.588;7.002;2023-04-15T06:51:04;11.00;;;6.82;;
78336;SDS011;67610;51.588;7.002;2023-04-15T06:53:29;11.60;;;6.60;;
78336;SDS011;67610;51.588;7.002;2023-04-15T06:55:55;9.85;;;6.38;;
78336;SDS011;67610;51.588;7.002;2023-04-15T06:58:20;9.52;;;6.20;;
78336;SDS011;67610;51.588;7.002;2023-04-15T07:00:46;9.45;;;6.13;;
78336;SDS011;67610;51.588;7.002;2023-04-15T07:03:11;11.07;;;6.68;;
78336;SDS011;67610;51.588;7.002;2023-04-15T07:05:37;8.85;;;5.80;;
78336;SDS011;67610;51.588;7.002;2023-04-15T07:08:03;11.30;;;6.47;;
78336;SDS011;67610;51.588;7.002;2023-04-15T07:10:29;11.57;;;6.72;;
78336;SDS011;67610;51.588;7.002;2023-04-15T07:12:55;10.65;;;7.05;;
78336;SDS011;67610;51.588;7.002;2023-04-15T07:15:21;9.48;;;6.20;;
78336;SDS011;67610;51.588;7.002;2023-04-15T07:17:47;10.55;;;5.80;;
78336;SDS011;67610;51.588;7.002;2023-04-15T07:20:13;9.98;;;5.78;;
78336;SDS011;67610;51.588;7.002;2023-04-15T07:22:38;9.20;;;5.75;;
78336;SDS011;67610;51.588;7.002;2023-04-15T07:25:04;10.38;;;6.18;;
78336;SDS011;67610;51.588;7.002;2023-04-15T07:27:30;8.90;;;5.75;;
78336;SDS011;67610;51.588;7.002;2023-04-15T07:29:56;8.90;;;5.93;;
78336;SDS011;67610;51.588;7.002;2023-04-15T07:32:21;9.52;;;5.60;;
78336;SDS011;67610;51.588;7.002;2023-04-15T07:34:47;8.48;;;5.05;;
78336;SDS011;67610;51.588;7.002;2023-04-15T07:37:12;7.47;;;5.18;;
78336;SDS011;67610;51.588;7.002;2023-04-15T07:39:39;8.02;;;5.10;;
78336;SDS011;67610;51.588;7.002;2023-04-15T07:42:04;8.07;;;4.80;;
78336;SDS011;67610;51.588;7.002;2023-04-15T07:44:29;6.85;;;4.68;;
78336;SDS011;67610;51.588;7.002;2023-04-15T07:46:55;8.82;;;4.65;;
78336;SDS011;67610;51.588;7.002;2023-04-15T07:49:21;7.65;;;4.97;;
78336;SDS011;67610;51.588;7.002;2023-04-15T07:51:47;7.95;;;4.80;;
78336;SDS011;67610;51.588;7.002;2023-04-15T07:54:13;7.85;;;4.53;;
78336;SDS011;67610;51.588;7.002;2023-04-15T07:56:39;6.32;;;3.85;;
78336;SDS011;67610;51.588;7.002;2023-04-15T07:59:07;5.85;;;4.15;;
78336;SDS011;67610;51.588;7.002;2023-04-15T08:01:34;6.03;;;3.72;;
78336;SDS011;67610;51.588;7.002;2023-04-15T08:03:59;6.57;;;3.90;;
78336;SDS011;67610;51.588;7.002;2023-04-15T08:06:25;5.45;;;3.60;;
78336;SDS011;67610;51.588;7.002;2023-04-15T08:08:51;7.85;;;5.10;;
78336;SDS011;67610;51.588;7.002;2023-04-15T08:11:18;7.00;;;4.60;;
78336;SDS011;67610;51.588;7.002;2023-04-15T08:13:43;7.60;;;4.50;;
78336;SDS011;67610;51.588;7.002;2023-04-15T08:16:22;9.45;;;5.13;;
78336;SDS011;67610;51.588;7.002;2023-04-15T08:18:49;6.30;;;4.30;;
78336;SDS011;67610;51.588;7.002;2023-04-15T08:21:16;6.85;;;4.60;;
78336;SDS011;67610;51.588;7.002;2023-04-15T08:23:43;6.32;;;3.92;;
78336;SDS011;67610;51.588;7.002;2023-04-15T08:26:09;7.38;;;4.22;;
78336;SDS011;67610;51.588;7.002;2023-04-15T08:28:36;7.20;;;4.25;;
78336;SDS011;67610;51.588;7.002;2023-04-15T08:31:03;6.28;;;4.10;;
78336;SDS011;67610;51.588;7.002;2023-04-15T08:33:29;7.60;;;3.90;;
78336;SDS011;67610;51.588;7.002;2023-04-15T08:35:54;6.50;;;3.83;;
78336;SDS011;67610;51.588;7.002;2023-04-15T08:38:20;6.03;;;4.25;;
78336;SDS011;67610;51.588;7.002;2023-04-15T08:40:46;6.18;;;3.80;;
78336;SDS011;67610;51.588;7.002;2023-04-15T08:43:14;7.40;;;4.47;;
78336;SDS011;67610;51.588;7.002;2023-04-15T08:45:45;5.82;;;4.05;;
78336;SDS011;67610;51.588;7.002;2023-04-15T08:48:14;6.32;;;4.07;;
78336;SDS011;67610;51.588;7.002;2023-04-15T08:50:43;6.47;;;4.47;;
78336;SDS011;67610;51.588;7.002;2023-04-15T08:53:09;6.20;;;4.10;;
78336;SDS011;67610;51.588;7.002;2023-04-15T08:55:36;8.85;;;4.68;;
78336;SDS011;67610;51.588;7.002;2023-04-15T08:58:07;7.30;;;4.78;;
78336;SDS011;67610;51.588;7.002;2023-04-15T09:00:35;4.82;;;3.58;;
78336;SDS011;67610;51.588;7.002;2023-04-15T09:03:00;6.93;;;4.32;;
78336;SDS011;67610;51.588;7.002;2023-04-15T09:05:26;6.13;;;3.70;;
78336;SDS011;67610;51.588;7.002;2023-04-15T09:07:51;5.03;;;3.50;;
78336;SDS011;67610;51.588;7.002;2023-04-15T09:10:17;5.70;;;3.55;;
78336;SDS011;67610;51.588;7.002;2023-04-15T09:12:42;6.35;;;3.75;;
78336;SDS011;67610;51.588;7.002;2023-04-15T09:15:10;5.63;;;3.38;;
78336;SDS011;67610;51.588;7.002;2023-04-15T09:17:40;5.00;;;3.63;;
78336;SDS011;67610;51.588;7.002;2023-04-15T09:20:08;5.55;;;3.80;;
78336;SDS011;67610;51.588;7.002;2023-04-15T09:22:36;6.13;;;3.80;;
78336;SDS011;67610;51.588;7.002;2023-04-15T09:25:03;6.03;;;3.78;;
78336;SDS011;67610;51.588;7.002;2023-04-15T09:27:28;5.05;;;3.55;;
78336;SDS011;67610;51.588;7.002;2023-04-15T09:29:54;5.18;;;3.58;;
78336;SDS011;67610;51.588;7.002;2023-04-15T09:32:19;5.10;;;3.40;;
78336;SDS011;67610;51.588;7.002;2023-04-15T09:34:47;4.70;;;3.15;;
78336;SDS011;67610;51.588;7.002;2023-04-15T09:37:13;4.53;;;3.15;;
78336;SDS011;67610;51.588;7.002;2023-04-15T09:39:48;4.93;;;3.30;;
78336;SDS011;67610;51.588;7.002;2023-04-15T09:42:16;5.82;;;3.53;;
78336;SDS011;67610;51.588;7.002;2023-04-15T09:44:48;4.45;;;2.90;;
78336;SDS011;67610;51.588;7.002;2023-04-15T09:47:31;5.70;;;3.50;;
78336;SDS011;67610;51.588;7.002;2023-04-15T09:49:57;5.97;;;3.95;;
78336;SDS011;67610;51.588;7.002;2023-04-15T09:52:23;4.90;;;3.90;;
78336;SDS011;67610;51.588;7.002;2023-04-15T09:54:49;5.20;;;3.55;;
78336;SDS011;67610;51.588;7.002;2023-04-15T09:57:19;7.07;;;4.32;;
78336;SDS011;67610;51.588;7.002;2023-04-15T09:59:46;5.88;;;4.13;;
78336;SDS011;67610;51.588;7.002;2023-04-15T10:02:12;7.20;;;4.70;;
78336;SDS011;67610;51.588;7.002;2023-04-15T10:04:39;6.45;;;4.63;;
78336;SDS011;67610;51.588;7.002;2023-04-15T10:07:05;6.38;;;4.57;;
78336;SDS011;67610;51.588;7.002;2023-04-15T10:09:34;6.53;;;4.72;;
78336;SDS011;67610;51.588;7.002;2023-04-15T10:12:01;5.95;;;4.32;;
78336;SDS011;67610;51.588;7.002;2023-04-15T10:14:30;5.57;;;3.83;;
78336;SDS011;67610;51.588;7.002;2023-04-15T10:17:00;8.35;;;4.20;;
78336;SDS011;67610;51.588;7.002;2023-04-15T10:19:27;6.13;;;4.15;;
78336;SDS011;67610;51.588;7.002;2023-04-15T10:21:56;6.22;;;4.32;;
78336;SDS011;67610;51.588;7.002;2023-04-15T10:24:22;6.35;;;3.80;;
78336;SDS011;67610;51.588;7.002;2023-04-15T10:26:50;5.95;;;4.22;;
78336;SDS011;67610;51.588;7.002;2023-04-15T10:29:16;5.57;;;3.80;;
78336;SDS011;67610;51.588;7.002;2023-04-15T10:31:42;7.07;;;4.38;;
78336;SDS011;67610;51.588;7.002;2023-04-15T10:34:08;5.47;;;3.95;;
78336;SDS011;67610;51.588;7.002;2023-04-15T10:36:34;6.32;;;3.67;;
78336;SDS011;67610;51.588;7.002;2023-04-15T10:39:00;6.28;;;3.65;;
78336;SDS011;67610;51.588;7.002;2023-04-15T10:41:26;4.60;;;3.30;;
78336;SDS011;67610;51.588;7.002;2023-04-15T10:46:41;4.97;;;3.28;;
78336;SDS011;67610;51.588;7.002;2023-04-15T10:51:38;6.32;;;4.05;;
78336;SDS011;67610;51.588;7.002;2023-04-15T10:54:12;5.68;;;3.83;;
78336;SDS011;67610;51.588;7.002;2023-04-15T10:59:30;6.28;;;3.95;;
78336;SDS011;67610;51.588;7.002;2023-04-15T11:01:58;5.78;;;3.60;;
78336;SDS011;67610;51.588;7.002;2023-04-15T11:07:32;5.30;;;3.40;;
78336;SDS011;67610;51.588;7.002;2023-04-15T11:10:02;6.10;;;3.85;;
78336;SDS011;67610;51.588;7.002;2023-04-15T11:12:35;5.75;;;3.67;;
78336;SDS011;67610;51.588;7.002;2023-04-15T11:20:37;5.93;;;3.80;;
78336;SDS011;67610;51.588;7.002;2023-04-15T11:23:04;6.35;;;4.05;;
78336;SDS011;67610;51.588;7.002;2023-04-15T11:25:34;6.25;;;3.85;;
78336;SDS011;67610;51.588;7.002;2023-04-15T11:28:02;6.20;;;4.10;;
78336;SDS011;67610;51.588;7.002;2023-04-15T11:30:29;6.80;;;3.70;;
78336;SDS011;67610;51.588;7.002;2023-04-15T11:33:00;6.03;;;3.72;;
78336;SDS011;67610;51.588;7.002;2023-04-15T11:35:27;5.57;;;3.40;;
78336;SDS011;67610;51.588;7.002;2023-04-15T11:37:53;6.68;;;3.72;;
78336;SDS011;67610;51.588;7.002;2023-04-15T11:40:26;5.68;;;3.30;;
78336;SDS011;67610;51.588;7.002;2023-04-15T11:45:36;5.00;;;3.47;;
78336;SDS011;67610;51.588;7.002;2023-04-15T11:50:33;5.03;;;3.53;;
78336;SDS011;67610;51.588;7.002;2023-04-15T11:53:03;5.70;;;3.42;;
78336;SDS011;67610;51.588;7.002;2023-04-15T11:55:39;5.20;;;3.40;;
78336;SDS011;67610;51.588;7.002;2023-04-15T11:58:14;4.65;;;3.10;;
78336;SDS011;67610;51.588;7.002;2023-04-15T12:00:45;5.50;;;3.20;;
78336;SDS011;67610;51.588;7.002;2023-04-15T12:06:11;5.25;;;3.25;;
78336;SDS011;67610;51.588;7.002;2023-04-15T12:13:43;5.10;;;3.08;;
78336;SDS011;67610;51.588;7.002;2023-04-15T12:16:09;5.88;;;3.17;;
78336;SDS011;67610;51.588;7.002;2023-04-15T12:18:38;5.00;;;3.00;;
78336;SDS011;67610;51.588;7.002;2023-04-15T12:21:10;4.60;;;3.03;;
78336;SDS011;67610;51.588;7.002;2023-04-15T12:23:46;4.90;;;3.38;;
78336;SDS011;67610;51.588;7.002;2023-04-15T12:26:35;6.30;;;3.47;;
78336;SDS011;67610;51.588;7.002;2023-04-15T12:29:06;4.93;;;3.08;;
78336;SDS011;67610;51.588;7.002;2023-04-15T12:31:35;4.40;;;2.85;;
78336;SDS011;67610;51.588;7.002;2023-04-15T12:34:02;5.10;;;3.25;;
78336;SDS011;67610;51.588;7.002;2023-04-15T12:36:31;4.53;;;3.03;;
78336;SDS011;67610;51.588;7.002;2023-04-15T12:39:01;4.85;;;3.15;;
78336;SDS011;67610;51.588;7.002;2023-04-15T12:41:29;4.82;;;3.33;;
78336;SDS011;67610;51.588;7.002;2023-04-15T12:43:54;5.45;;;3.58;;
78336;SDS011;67610;51.588;7.002;2023-04-15T12:46:19;5.50;;;3.40;;
78336;SDS011;67610;51.588;7.002;2023-04-15T12:48:46;4.88;;;2.90;;
78336;SDS011;67610;51.588;7.002;2023-04-15T12:51:12;4.20;;;3.10;;
78336;SDS011;67610;51.588;7.002;2023-04-15T12:53:38;4.30;;;2.97;;
78336;SDS011;67610;51.588;7.002;2023-04-15T12:56:03;4.28;;;2.50;;
78336;SDS011;67610;51.588;7.002;2023-04-15T12:58:29;4.05;;;2.90;;
78336;SDS011;67610;51.588;7.002;2023-04-15T13:00:54;4.78;;;2.80;;
78336;SDS011;67610;51.588;7.002;2023-04-15T13:03:19;5.35;;;3.80;;
78336;SDS011;67610;51.588;7.002;2023-04-15T13:05:45;5.68;;;3.53;;
78336;SDS011;67610;51.588;7.002;2023-04-15T13:08:11;5.07;;;3.20;;
78336;SDS011;67610;51.588;7.002;2023-04-15T13:10:36;5.93;;;2.97;;
78336;SDS011;67610;51.588;7.002;2023-04-15T13:13:03;5.20;;;3.10;;
78336;SDS011;67610;51.588;7.002;2023-04-15T13:15:29;4.95;;;2.90;;
78336;SDS011;67610;51.588;7.002;2023-04-15T13:17:55;4.05;;;2.83;;
78336;SDS011;67610;51.588;7.002;2023-04-15T13:20:21;4.95;;;2.85;;
78336;SDS011;67610;51.588;7.002;2023-04-15T13:22:46;4.90;;;2.50;;
78336;SDS011;67610;51.588;7.002;2023-04-15T13:25:11;5.97;;;2.78;;
78336;SDS011;67610;51.588;7.002;2023-04-15T13:27:37;4.65;;;2.65;;
78336;SDS011;67610;51.588;7.002;2023-04-15T13:30:04;6.63;;;2.97;;
78336;SDS011;67610;51.588;7.002;2023-04-15T13:32:30;4.32;;;2.60;;
78336;SDS011;67610;51.588;7.002;2023-04-15T13:34:56;6.03;;;2.92;;
78336;SDS011;67610;51.588;7.002;2023-04-15T13:37:27;4.38;;;2.97;;
78336;SDS011;67610;51.588;7.002;2023-04-15T13:39:54;5.13;;;2.92;;
78336;SDS011;67610;51.588;7.002;2023-04-15T13:42:23;4.72;;;2.60;;
78336;SDS011;67610;51.588;7.002;2023-04-15T13:44:49;5.68;;;3.00;;
78336;SDS011;67610;51.588;7.002;2023-04-15T13:47:19;6.10;;;3.25;;
78336;SDS011;67610;51.588;7.002;2023-04-15T13:49:44;4.95;;;3.42;;
78336;SDS011;67610;51.588;7.002;2023-04-15T13:52:10;4.70;;;2.90;;
78336;SDS011;67610;51.588;7.002;2023-04-15T13:54:36;5.15;;;3.00;;
78336;SDS011;67610;51.588;7.002;2023-04-15T13:57:01;3.95;;;2.90;;
78336;SDS011;67610;51.588;7.002;2023-04-15T13:59:27;4.95;;;2.95;;
78336;SDS011;67610;51.588;7.002;2023-04-15T14:01:52;4.78;;;2.80;;
78336;SDS011;67610;51.588;7.002;2023-04-15T14:04:18;4.55;;;2.83;;
78336;SDS011;67610;51.588;7.002;2023-04-15T14:06:43;4.75;;;2.70;;
78336;SDS011;67610;51.588;7.002;2023-04-15T14:09:09;4.72;;;3.08;;
78336;SDS011;67610;51.588;7.002;2023-04-15T14:11:34;4.88;;;3.22;;
78336;SDS011;67610;51.588;7.002;2023-04-15T14:14:02;3.33;;;2.60;;
78336;SDS011;67610;51.588;7.002;2023-04-15T14:16:27;5.50;;;2.60;;
78336;SDS011;67610;51.588;7.002;2023-04-15T14:18:52;5.13;;;3.10;;
78336;SDS011;67610;51.588;7.002;2023-04-15T14:21:18;5.70;;;2.90;;
78336;SDS011;67610;51.588;7.002;2023-04-15T14:23:43;5.30;;;2.90;;
78336;SDS011;67610;51.588;7.002;2023-04-15T14:26:08;4.55;;;3.03;;
78336;SDS011;67610;51.588;7.002;2023-04-15T14:28:34;4.38;;;3.03;;
78336;SDS011;67610;51.588;7.002;2023-04-15T14:30:59;4.68;;;3.15;;
78336;SDS011;67610;51.588;7.002;2023-04-15T14:33:25;5.07;;;3.13;;
78336;SDS011;67610;51.588;7.002;2023-04-15T14:35:50;4.40;;;3.15;;
78336;SDS011;67610;51.588;7.002;2023-04-15T14:38:16;5.07;;;3.15;;
78336;SDS011;67610;51.588;7.002;2023-04-15T14:40:41;4.10;;;2.88;;
78336;SDS011;67610;51.588;7.002;2023-04-15T14:43:07;4.65;;;2.75;;
78336;SDS011;67610;51.588;7.002;2023-04-15T14:45:32;5.95;;;3.40;;
78336;SDS011;67610;51.588;7.002;2023-04-15T14:47:58;5.05;;;3.30;;
78336;SDS011;67610;51.588;7.002;2023-04-15T14:50:25;6.28;;;3.45;;
78336;SDS011;67610;51.588;7.002;2023-04-15T14:52:50;5.10;;;2.80;;
78336;SDS011;67610;51.588;7.002;2023-04-15T14:55:16;5.63;;;2.88;;
78336;SDS011;67610;51.588;7.002;2023-04-15T14:57:41;4.38;;;2.78;;
78336;SDS011;67610;51.588;7.002;2023-04-15T15:00:09;4.28;;;2.72;;
78336;SDS011;67610;51.588;7.002;2023-04-15T15:02:36;4.47;;;2.83;;
78336;SDS011;67610;51.588;7.002;2023-04-15T15:05:02;3.88;;;2.75;;
78336;SDS011;67610;51.588;7.002;2023-04-15T15:07:28;4.40;;;2.70;;
78336;SDS011;67610;51.588;7.002;2023-04-15T15:09:53;4.30;;;2.80;;